sensor_id;sensor_type;location;lat;lon;timestamp;P1;durP1;ratioP1;P2;durP2;ratioP2
26588;SDS011;14235;48.532;8.722;2024-02-28T00:01:02;18.48;;;14.43;;
26588;SDS011;14235;48.532;8.722;2024-02-28T00:03:28;18.73;;;14.68;;
26588;SDS011;14235;48.532;8.722;2024-02-28T00:05:54;17.67;;;14.52;;
26588;SDS011;14235;48.532;8.722;2024-02-28T00:08:20;17.17;;;13.75;;
26588;SDS011;14235;48.532;8.722;2024-02-28T00:10:46;19.75;;;15.30;;
26588;SDS011;14235;48.532;8.722;2024-02-28T00:13:12;20.48;;;14.70;;
26588;SDS011;14235;48.532;8.722;2024-02-28T00:15:40;18.45;;;14.15;;
26588;SDS011;14235;48.532;8.722;2024-02-28T00:18:06;19.30;;;15.57;;
26588;SDS011;14235;48.532;8.722;2024-02-28T00:20:33;20.45;;;14.95;;
26588;SDS011;14235;48.532;8.722;2024-02-28T00:22:59;19.00;;;14.20;;
26588;SDS011;14235;48.532;8.722;2024-02-28T00:25:24;19.08;;;14.50;;
26588;SDS011;14235;48.532;8.722;2024-02-28T00:27:50;18.35;;;14.45;;
26588;SDS011;14235;48.532;8.722;2024-02-28T00:30:17;17.65;;;13.95;;
26588;SDS011;14235;48.532;8.722;2024-02-28T00:32:43;20.08;;;14.93;;
26588;SDS011;14235;48.532;8.722;2024-02-28T00:35:08;17.83;;;14.10;;
26588;SDS011;14235;48.532;8.722;2024-02-28T00:37:35;16.95;;;13.95;;
26588;SDS011;14235;48.532;8.722;2024-02-28T00:40:01;19.42;;;13.15;;
26588;SDS011;14235;48.532;8.722;2024-02-28T00:42:27;17.95;;;13.65;;
26588;SDS011;14235;48.532;8.722;2024-02-28T00:44:52;18.70;;;14.80;;
26588;SDS011;14235;48.532;8.722;2024-02-28T00:47:18;17.52;;;13.88;;
26588;SDS011;14235;48.532;8.722;2024-02-28T00:49:44;17.95;;;13.63;;
26588;SDS011;14235;48.532;8.722;2024-02-28T00:52:10;18.73;;;13.90;;
26588;SDS011;14235;48.532;8.722;2024-02-28T00:54:36;18.20;;;14.27;;
26588;SDS011;14235;48.532;8.722;2024-02-28T00:57:02;17.85;;;14.35;;
26588;SDS011;14235;48.532;8.722;2024-02-28T00:59:28;18.13;;;13.70;;
26588;SDS011;14235;48.532;8.722;2024-02-28T01:01:54;18.20;;;13.50;;
26588;SDS011;14235;48.532;8.722;2024-02-28T01:04:20;16.25;;;13.25;;
26588;SDS011;14235;48.532;8.722;2024-02-28T01:06:46;17.77;;;13.68;;
26588;SDS011;14235;48.532;8.722;2024-02-28T01:09:12;18.23;;;13.85;;
26588;SDS011;14235;48.532;8.722;2024-02-28T01:11:38;17.88;;;14.00;;
26588;SDS011;14235;48.532;8.722;2024-02-28T01:14:04;17.92;;;13.60;;
26588;SDS011;14235;48.532;8.722;2024-02-28T01:16:30;22.05;;;15.18;;
26588;SDS011;14235;48.532;8.722;2024-02-28T01:18:56;19.85;;;14.65;;
26588;SDS011;14235;48.532;8.722;2024-02-28T01:21:22;20.30;;;14.90;;
26588;SDS011;14235;48.532;8.722;2024-02-28T01:23:48;18.02;;;13.75;;
26588;SDS011;14235;48.532;8.722;2024-02-28T01:26:14;16.52;;;13.05;;
26588;SDS011;14235;48.532;8.722;2024-02-28T01:28:40;17.00;;;13.90;;
26588;SDS011;14235;48.532;8.722;2024-02-28T01:31:08;16.15;;;13.45;;
26588;SDS011;14235;48.532;8.722;2024-02-28T01:33:34;17.10;;;13.07;;
26588;SDS011;14235;48.532;8.722;2024-02-28T01:36:00;15.68;;;13.13;;
26588;SDS011;14235;48.532;8.722;2024-02-28T01:38:26;17.13;;;13.23;;
26588;SDS011;14235;48.532;8.722;2024-02-28T01:40:52;17.05;;;13.75;;
26588;SDS011;14235;48.532;8.722;2024-02-28T01:43:17;18.58;;;14.20;;
26588;SDS011;14235;48.532;8.722;2024-02-28T01:45:43;18.90;;;14.52;;
26588;SDS011;14235;48.532;8.722;2024-02-28T01:48:09;16.70;;;13.85;;
26588;SDS011;14235;48.532;8.722;2024-02-28T01:50:36;20.50;;;14.20;;
26588;SDS011;14235;48.532;8.722;2024-02-28T01:53:03;15.75;;;13.40;;
26588;SDS011;14235;48.532;8.722;2024-02-28T01:55:30;18.75;;;13.10;;
26588;SDS011;14235;48.532;8.722;2024-02-28T01:57:56;16.88;;;13.48;;
26588;SDS011;14235;48.532;8.722;2024-02-28T02:00:22;17.15;;;12.70;;
26588;SDS011;14235;48.532;8.722;2024-02-28T02:02:48;17.38;;;13.27;;
26588;SDS011;14235;48.532;8.722;2024-02-28T02:05:14;14.90;;;12.20;;
26588;SDS011;14235;48.532;8.722;2024-02-28T02:07:41;18.17;;;13.75;;
26588;SDS011;14235;48.532;8.722;2024-02-28T02:10:07;14.93;;;12.82;;
26588;SDS011;14235;48.532;8.722;2024-02-28T02:12:37;17.15;;;13.13;;
26588;SDS011;14235;48.532;8.722;2024-02-28T02:15:03;17.08;;;12.55;;
26588;SDS011;14235;48.532;8.722;2024-02-28T02:17:29;16.02;;;12.88;;
26588;SDS011;14235;48.532;8.722;2024-02-28T02:19:55;16.83;;;12.95;;
26588;SDS011;14235;48.532;8.722;2024-02-28T02:22:21;16.10;;;13.05;;
26588;SDS011;14235;48.532;8.722;2024-02-28T02:24:48;14.20;;;12.70;;
26588;SDS011;14235;48.532;8.722;2024-02-28T02:27:14;16.38;;;13.05;;
26588;SDS011;14235;48.532;8.722;2024-02-28T02:29:40;17.20;;;12.82;;
26588;SDS011;14235;48.532;8.722;2024-02-28T02:32:06;16.83;;;12.63;;
26588;SDS011;14235;48.532;8.722;2024-02-28T02:34:32;17.50;;;13.15;;
26588;SDS011;14235;48.532;8.722;2024-02-28T02:36:58;18.52;;;14.00;;
26588;SDS011;14235;48.532;8.722;2024-02-28T02:39:24;16.67;;;13.13;;
26588;SDS011;14235;48.532;8.722;2024-02-28T02:41:49;17.35;;;13.75;;
26588;SDS011;14235;48.532;8.722;2024-02-28T02:44:16;16.17;;;13.05;;
26588;SDS011;14235;48.532;8.722;2024-02-28T02:46:42;16.13;;;12.48;;
26588;SDS011;14235;48.532;8.722;2024-02-28T02:49:08;13.68;;;12.20;;
26588;SDS011;14235;48.532;8.722;2024-02-28T02:51:34;14.50;;;12.60;;
26588;SDS011;14235;48.532;8.722;2024-02-28T02:53:59;16.80;;;12.60;;
26588;SDS011;14235;48.532;8.722;2024-02-28T02:56:25;14.85;;;12.63;;
26588;SDS011;14235;48.532;8.722;2024-02-28T02:58:51;14.75;;;12.38;;
26588;SDS011;14235;48.532;8.722;2024-02-28T03:01:17;16.63;;;12.00;;
26588;SDS011;14235;48.532;8.722;2024-02-28T03:03:45;14.65;;;12.00;;
26588;SDS011;14235;48.532;8.722;2024-02-28T03:06:11;15.77;;;12.60;;
26588;SDS011;14235;48.532;8.722;2024-02-28T03:08:36;15.10;;;11.88;;
26588;SDS011;14235;48.532;8.722;2024-02-28T03:11:02;14.25;;;12.07;;
26588;SDS011;14235;48.532;8.722;2024-02-28T03:13:33;14.90;;;13.23;;
26588;SDS011;14235;48.532;8.722;2024-02-28T03:15:59;17.88;;;13.23;;
26588;SDS011;14235;48.532;8.722;2024-02-28T03:18:25;15.20;;;11.50;;
26588;SDS011;14235;48.532;8.722;2024-02-28T03:20:51;14.95;;;12.20;;
26588;SDS011;14235;48.532;8.722;2024-02-28T03:23:17;13.63;;;11.77;;
26588;SDS011;14235;48.532;8.722;2024-02-28T03:25:43;14.80;;;12.35;;
26588;SDS011;14235;48.532;8.722;2024-02-28T03:28:10;15.98;;;12.52;;
26588;SDS011;14235;48.532;8.722;2024-02-28T03:30:36;16.42;;;13.43;;
26588;SDS011;14235;48.532;8.722;2024-02-28T03:33:02;14.93;;;11.98;;
26588;SDS011;14235;48.532;8.722;2024-02-28T03:35:28;12.85;;;11.48;;
26588;SDS011;14235;48.532;8.722;2024-02-28T03:37:54;13.85;;;11.85;;
26588;SDS011;14235;48.532;8.722;2024-02-28T03:40:20;14.82;;;12.07;;
26588;SDS011;14235;48.532;8.722;2024-02-28T03:42:46;14.05;;;12.15;;
26588;SDS011;14235;48.532;8.722;2024-02-28T03:45:12;14.30;;;12.30;;
26588;SDS011;14235;48.532;8.722;2024-02-28T03:47:38;15.98;;;12.52;;
26588;SDS011;14235;48.532;8.722;2024-02-28T03:50:04;14.25;;;11.98;;
26588;SDS011;14235;48.532;8.722;2024-02-28T03:52:30;14.65;;;11.63;;
26588;SDS011;14235;48.532;8.722;2024-02-28T03:54:56;15.35;;;12.20;;
26588;SDS011;14235;48.532;8.722;2024-02-28T03:57:22;16.42;;;12.63;;
26588;SDS011;14235;48.532;8.722;2024-02-28T03:59:48;14.50;;;12.55;;
26588;SDS011;14235;48.532;8.722;2024-02-28T04:02:14;16.17;;;13.07;;
26588;SDS011;14235;48.532;8.722;2024-02-28T04:04:40;18.15;;;13.25;;
26588;SDS011;14235;48.532;8.722;2024-02-28T04:07:07;17.23;;;11.95;;
26588;SDS011;14235;48.532;8.722;2024-02-28T04:09:33;19.90;;;15.25;;
26588;SDS011;14235;48.532;8.722;2024-02-28T04:11:59;20.33;;;15.77;;
26588;SDS011;14235;48.532;8.722;2024-02-28T04:14:25;17.13;;;14.05;;
26588;SDS011;14235;48.532;8.722;2024-02-28T04:16:51;22.30;;;15.43;;
26588;SDS011;14235;48.532;8.722;2024-02-28T04:19:18;17.50;;;14.68;;
26588;SDS011;14235;48.532;8.722;2024-02-28T04:21:44;20.10;;;15.77;;
26588;SDS011;14235;48.532;8.722;2024-02-28T04:24:10;19.50;;;15.30;;
26588;SDS011;14235;48.532;8.722;2024-02-28T04:26:36;20.23;;;15.45;;
26588;SDS011;14235;48.532;8.722;2024-02-28T04:29:01;19.70;;;15.50;;
26588;SDS011;14235;48.532;8.722;2024-02-28T04:31:30;20.45;;;15.63;;
26588;SDS011;14235;48.532;8.722;2024-02-28T04:33:56;21.00;;;15.30;;
26588;SDS011;14235;48.532;8.722;2024-02-28T04:36:22;18.98;;;15.93;;
26588;SDS011;14235;48.532;8.722;2024-02-28T04:38:48;18.33;;;14.07;;
26588;SDS011;14235;48.532;8.722;2024-02-28T04:41:14;22.50;;;15.60;;
26588;SDS011;14235;48.532;8.722;2024-02-28T04:43:40;19.67;;;15.57;;
26588;SDS011;14235;48.532;8.722;2024-02-28T04:46:06;21.33;;;16.38;;
26588;SDS011;14235;48.532;8.722;2024-02-28T04:48:32;21.45;;;16.50;;
26588;SDS011;14235;48.532;8.722;2024-02-28T04:50:59;18.55;;;14.93;;
26588;SDS011;14235;48.532;8.722;2024-02-28T04:53:26;21.48;;;16.17;;
26588;SDS011;14235;48.532;8.722;2024-02-28T04:55:52;22.02;;;16.13;;
26588;SDS011;14235;48.532;8.722;2024-02-28T04:58:18;21.65;;;15.98;;
26588;SDS011;14235;48.532;8.722;2024-02-28T05:00:44;21.60;;;16.52;;
26588;SDS011;14235;48.532;8.722;2024-02-28T05:03:10;22.50;;;16.08;;
26588;SDS011;14235;48.532;8.722;2024-02-28T05:05:36;22.17;;;16.27;;
26588;SDS011;14235;48.532;8.722;2024-02-28T05:08:02;22.58;;;15.95;;
26588;SDS011;14235;48.532;8.722;2024-02-28T05:10:28;21.15;;;17.02;;
26588;SDS011;14235;48.532;8.722;2024-02-28T05:12:54;21.45;;;16.50;;
26588;SDS011;14235;48.532;8.722;2024-02-28T05:15:20;20.17;;;15.98;;
26588;SDS011;14235;48.532;8.722;2024-02-28T05:17:46;20.88;;;15.55;;
26588;SDS011;14235;48.532;8.722;2024-02-28T05:20:12;22.52;;;16.55;;
26588;SDS011;14235;48.532;8.722;2024-02-28T05:22:38;23.02;;;17.42;;
26588;SDS011;14235;48.532;8.722;2024-02-28T05:25:07;23.00;;;16.75;;
26588;SDS011;14235;48.532;8.722;2024-02-28T05:27:33;22.42;;;16.58;;
26588;SDS011;14235;48.532;8.722;2024-02-28T05:29:59;21.52;;;16.52;;
26588;SDS011;14235;48.532;8.722;2024-02-28T05:32:26;21.92;;;16.83;;
26588;SDS011;14235;48.532;8.722;2024-02-28T05:34:51;20.73;;;16.38;;
26588;SDS011;14235;48.532;8.722;2024-02-28T05:37:17;23.05;;;16.08;;
26588;SDS011;14235;48.532;8.722;2024-02-28T05:39:43;19.80;;;15.82;;
26588;SDS011;14235;48.532;8.722;2024-02-28T05:42:09;22.08;;;16.10;;
26588;SDS011;14235;48.532;8.722;2024-02-28T05:44:35;19.45;;;14.60;;
26588;SDS011;14235;48.532;8.722;2024-02-28T05:47:01;20.25;;;15.55;;
26588;SDS011;14235;48.532;8.722;2024-02-28T05:49:27;17.10;;;14.30;;
26588;SDS011;14235;48.532;8.722;2024-02-28T05:51:53;18.83;;;14.50;;
26588;SDS011;14235;48.532;8.722;2024-02-28T05:54:19;18.88;;;14.43;;
26588;SDS011;14235;48.532;8.722;2024-02-28T05:56:45;17.30;;;13.48;;
26588;SDS011;14235;48.532;8.722;2024-02-28T05:59:11;19.20;;;13.48;;
26588;SDS011;14235;48.532;8.722;2024-02-28T06:04:07;18.35;;;14.32;;
26588;SDS011;14235;48.532;8.722;2024-02-28T06:06:33;18.00;;;13.77;;
26588;SDS011;14235;48.532;8.722;2024-02-28T06:08:58;18.25;;;13.52;;
26588;SDS011;14235;48.532;8.722;2024-02-28T06:11:24;17.00;;;13.85;;
26588;SDS011;14235;48.532;8.722;2024-02-28T06:13:51;16.77;;;13.32;;
26588;SDS011;14235;48.532;8.722;2024-02-28T06:16:17;17.33;;;13.85;;
26588;SDS011;14235;48.532;8.722;2024-02-28T06:18:43;18.35;;;13.90;;
26588;SDS011;14235;48.532;8.722;2024-02-28T06:21:09;16.52;;;13.25;;
26588;SDS011;14235;48.532;8.722;2024-02-28T06:23:35;16.33;;;13.85;;
26588;SDS011;14235;48.532;8.722;2024-02-28T06:26:01;18.27;;;13.30;;
26588;SDS011;14235;48.532;8.722;2024-02-28T06:28:27;20.30;;;14.23;;
26588;SDS011;14235;48.532;8.722;2024-02-28T06:30:53;18.40;;;13.60;;
26588;SDS011;14235;48.532;8.722;2024-02-28T06:33:19;17.20;;;13.98;;
26588;SDS011;14235;48.532;8.722;2024-02-28T06:35:45;16.52;;;13.27;;
26588;SDS011;14235;48.532;8.722;2024-02-28T06:38:11;15.98;;;13.35;;
26588;SDS011;14235;48.532;8.722;2024-02-28T06:40:37;14.80;;;11.98;;
26588;SDS011;14235;48.532;8.722;2024-02-28T06:43:03;15.57;;;12.35;;
26588;SDS011;14235;48.532;8.722;2024-02-28T06:45:30;15.65;;;12.82;;
26588;SDS011;14235;48.532;8.722;2024-02-28T06:47:56;15.65;;;12.00;;
26588;SDS011;14235;48.532;8.722;2024-02-28T06:50:22;14.18;;;11.93;;
26588;SDS011;14235;48.532;8.722;2024-02-28T06:52:47;13.38;;;11.55;;
26588;SDS011;14235;48.532;8.722;2024-02-28T06:55:13;13.60;;;12.05;;
26588;SDS011;14235;48.532;8.722;2024-02-28T06:57:40;15.23;;;11.85;;
26588;SDS011;14235;48.532;8.722;2024-02-28T07:00:07;13.00;;;11.23;;
26588;SDS011;14235;48.532;8.722;2024-02-28T07:02:33;14.10;;;11.88;;
26588;SDS011;14235;48.532;8.722;2024-02-28T07:05:00;14.40;;;11.65;;
26588;SDS011;14235;48.532;8.722;2024-02-28T07:07:25;13.20;;;11.80;;
26588;SDS011;14235;48.532;8.722;2024-02-28T07:09:51;15.60;;;13.00;;
26588;SDS011;14235;48.532;8.722;2024-02-28T07:12:18;14.60;;;12.15;;
26588;SDS011;14235;48.532;8.722;2024-02-28T07:14:44;12.57;;;10.95;;
26588;SDS011;14235;48.532;8.722;2024-02-28T07:17:10;13.60;;;11.40;;
26588;SDS011;14235;48.532;8.722;2024-02-28T07:19:36;13.55;;;10.77;;
26588;SDS011;14235;48.532;8.722;2024-02-28T07:22:02;13.10;;;10.80;;
26588;SDS011;14235;48.532;8.722;2024-02-28T07:24:29;13.73;;;11.55;;
26588;SDS011;14235;48.532;8.722;2024-02-28T07:26:54;13.57;;;11.60;;
26588;SDS011;14235;48.532;8.722;2024-02-28T07:29:20;13.13;;;11.15;;
26588;SDS011;14235;48.532;8.722;2024-02-28T07:31:46;12.75;;;10.82;;
26588;SDS011;14235;48.532;8.722;2024-02-28T07:34:13;12.75;;;10.95;;
26588;SDS011;14235;48.532;8.722;2024-02-28T07:36:39;12.95;;;11.10;;
26588;SDS011;14235;48.532;8.722;2024-02-28T07:39:05;15.88;;;11.98;;
26588;SDS011;14235;48.532;8.722;2024-02-28T07:41:31;13.10;;;10.93;;
26588;SDS011;14235;48.532;8.722;2024-02-28T07:43:57;13.57;;;10.68;;
26588;SDS011;14235;48.532;8.722;2024-02-28T07:46:23;13.80;;;10.32;;
26588;SDS011;14235;48.532;8.722;2024-02-28T07:48:49;11.65;;;9.50;;
26588;SDS011;14235;48.532;8.722;2024-02-28T07:51:15;12.27;;;10.52;;
26588;SDS011;14235;48.532;8.722;2024-02-28T07:53:43;12.60;;;10.60;;
26588;SDS011;14235;48.532;8.722;2024-02-28T07:56:15;10.93;;;9.82;;
26588;SDS011;14235;48.532;8.722;2024-02-28T07:58:41;12.00;;;10.73;;
26588;SDS011;14235;48.532;8.722;2024-02-28T08:01:08;12.88;;;9.65;;
26588;SDS011;14235;48.532;8.722;2024-02-28T08:03:34;13.18;;;10.43;;
26588;SDS011;14235;48.532;8.722;2024-02-28T08:06:00;12.20;;;10.85;;
26588;SDS011;14235;48.532;8.722;2024-02-28T08:08:26;11.52;;;10.30;;
26588;SDS011;14235;48.532;8.722;2024-02-28T08:10:52;12.27;;;10.75;;
26588;SDS011;14235;48.532;8.722;2024-02-28T08:13:19;11.73;;;10.02;;
26588;SDS011;14235;48.532;8.722;2024-02-28T08:15:45;11.20;;;9.90;;
26588;SDS011;14235;48.532;8.722;2024-02-28T08:18:11;12.07;;;9.77;;
26588;SDS011;14235;48.532;8.722;2024-02-28T08:20:37;11.45;;;10.10;;
26588;SDS011;14235;48.532;8.722;2024-02-28T08:23:04;12.00;;;9.55;;
26588;SDS011;14235;48.532;8.722;2024-02-28T08:25:30;11.95;;;10.13;;
26588;SDS011;14235;48.532;8.722;2024-02-28T08:27:56;11.75;;;10.35;;
26588;SDS011;14235;48.532;8.722;2024-02-28T08:30:22;11.52;;;10.10;;
26588;SDS011;14235;48.532;8.722;2024-02-28T08:32:48;13.73;;;10.82;;
26588;SDS011;14235;48.532;8.722;2024-02-28T08:35:14;13.10;;;10.15;;
26588;SDS011;14235;48.532;8.722;2024-02-28T08:37:40;12.55;;;10.18;;
26588;SDS011;14235;48.532;8.722;2024-02-28T08:40:06;11.00;;;9.52;;
26588;SDS011;14235;48.532;8.722;2024-02-28T08:42:33;12.73;;;10.18;;
26588;SDS011;14235;48.532;8.722;2024-02-28T08:44:59;11.80;;;10.55;;
26588;SDS011;14235;48.532;8.722;2024-02-28T08:47:26;11.45;;;9.98;;
26588;SDS011;14235;48.532;8.722;2024-02-28T08:49:54;13.55;;;10.15;;
26588;SDS011;14235;48.532;8.722;2024-02-28T08:52:21;11.02;;;9.25;;
26588;SDS011;14235;48.532;8.722;2024-02-28T08:54:47;11.00;;;9.40;;
26588;SDS011;14235;48.532;8.722;2024-02-28T08:57:13;11.80;;;9.98;;
26588;SDS011;14235;48.532;8.722;2024-02-28T08:59:40;13.95;;;9.95;;
26588;SDS011;14235;48.532;8.722;2024-02-28T09:02:06;11.77;;;9.73;;
26588;SDS011;14235;48.532;8.722;2024-02-28T09:04:32;13.18;;;10.27;;
26588;SDS011;14235;48.532;8.722;2024-02-28T09:06:58;11.35;;;9.68;;
26588;SDS011;14235;48.532;8.722;2024-02-28T09:09:24;12.30;;;9.52;;
26588;SDS011;14235;48.532;8.722;2024-02-28T09:11:50;10.52;;;9.38;;
26588;SDS011;14235;48.532;8.722;2024-02-28T09:14:16;10.43;;;9.25;;
26588;SDS011;14235;48.532;8.722;2024-02-28T09:16:42;10.32;;;8.90;;
26588;SDS011;14235;48.532;8.722;2024-02-28T09:19:08;10.73;;;9.20;;
26588;SDS011;14235;48.532;8.722;2024-02-28T09:21:34;9.60;;;8.60;;
26588;SDS011;14235;48.532;8.722;2024-02-28T09:24:00;12.30;;;9.95;;
26588;SDS011;14235;48.532;8.722;2024-02-28T09:26:26;10.85;;;9.07;;
26588;SDS011;14235;48.532;8.722;2024-02-28T09:28:52;11.25;;;9.48;;
26588;SDS011;14235;48.532;8.722;2024-02-28T09:31:18;9.55;;;8.55;;
26588;SDS011;14235;48.532;8.722;2024-02-28T09:33:44;9.80;;;8.77;;
26588;SDS011;14235;48.532;8.722;2024-02-28T09:36:11;9.30;;;8.27;;
26588;SDS011;14235;48.532;8.722;2024-02-28T09:38:37;11.35;;;9.50;;
26588;SDS011;14235;48.532;8.722;2024-02-28T09:41:04;11.02;;;8.60;;
26588;SDS011;14235;48.532;8.722;2024-02-28T09:43:30;9.52;;;8.52;;
26588;SDS011;14235;48.532;8.722;2024-02-28T09:46:03;11.00;;;8.68;;
26588;SDS011;14235;48.532;8.722;2024-02-28T09:48:29;11.43;;;9.15;;
26588;SDS011;14235;48.532;8.722;2024-02-28T09:50:56;8.95;;;8.05;;
26588;SDS011;14235;48.532;8.722;2024-02-28T09:53:22;9.90;;;8.90;;
26588;SDS011;14235;48.532;8.722;2024-02-28T09:55:52;9.32;;;8.30;;
26588;SDS011;14235;48.532;8.722;2024-02-28T09:58:18;11.05;;;9.30;;
26588;SDS011;14235;48.532;8.722;2024-02-28T10:00:47;10.90;;;9.70;;
26588;SDS011;14235;48.532;8.722;2024-02-28T10:03:16;10.65;;;9.55;;
26588;SDS011;14235;48.532;8.722;2024-02-28T10:05:44;11.82;;;9.60;;
26588;SDS011;14235;48.532;8.722;2024-02-28T10:08:10;8.95;;;8.05;;
26588;SDS011;14235;48.532;8.722;2024-02-28T10:10:38;9.60;;;8.60;;
26588;SDS011;14235;48.532;8.722;2024-02-28T10:13:04;9.10;;;8.10;;
26588;SDS011;14235;48.532;8.722;2024-02-28T10:15:30;10.15;;;8.20;;
26588;SDS011;14235;48.532;8.722;2024-02-28T10:17:56;10.57;;;9.02;;
26588;SDS011;14235;48.532;8.722;2024-02-28T10:20:22;9.23;;;8.13;;
26588;SDS011;14235;48.532;8.722;2024-02-28T10:22:48;9.25;;;8.27;;
26588;SDS011;14235;48.532;8.722;2024-02-28T10:25:14;10.05;;;8.68;;
26588;SDS011;14235;48.532;8.722;2024-02-28T10:27:40;10.93;;;9.23;;
26588;SDS011;14235;48.532;8.722;2024-02-28T10:30:06;10.07;;;8.35;;
26588;SDS011;14235;48.532;8.722;2024-02-28T10:32:32;9.70;;;8.65;;
26588;SDS011;14235;48.532;8.722;2024-02-28T10:35:00;11.70;;;8.55;;
26588;SDS011;14235;48.532;8.722;2024-02-28T10:37:28;9.63;;;8.63;;
26588;SDS011;14235;48.532;8.722;2024-02-28T10:39:57;12.60;;;9.77;;
26588;SDS011;14235;48.532;8.722;2024-02-28T10:42:25;12.65;;;9.60;;
26588;SDS011;14235;48.532;8.722;2024-02-28T10:44:54;10.50;;;8.85;;
26588;SDS011;14235;48.532;8.722;2024-02-28T10:47:21;11.15;;;9.15;;
26588;SDS011;14235;48.532;8.722;2024-02-28T10:49:48;11.13;;;9.23;;
26588;SDS011;14235;48.532;8.722;2024-02-28T10:52:13;9.80;;;8.80;;
26588;SDS011;14235;48.532;8.722;2024-02-28T10:54:40;10.60;;;9.15;;
26588;SDS011;14235;48.532;8.722;2024-02-28T10:57:10;11.40;;;8.63;;
26588;SDS011;14235;48.532;8.722;2024-02-28T10:59:38;14.40;;;9.68;;
26588;SDS011;14235;48.532;8.722;2024-02-28T11:02:05;12.13;;;9.55;;
26588;SDS011;14235;48.532;8.722;2024-02-28T11:04:32;11.13;;;9.68;;
26588;SDS011;14235;48.532;8.722;2024-02-28T11:06:58;11.10;;;9.80;;
26588;SDS011;14235;48.532;8.722;2024-02-28T11:09:28;12.70;;;9.48;;
26588;SDS011;14235;48.532;8.722;2024-02-28T11:11:56;13.70;;;9.60;;
26588;SDS011;14235;48.532;8.722;2024-02-28T11:14:22;11.63;;;9.25;;
26588;SDS011;14235;48.532;8.722;2024-02-28T11:17:00;13.43;;;9.73;;
26588;SDS011;14235;48.532;8.722;2024-02-28T11:19:27;13.77;;;10.43;;
26588;SDS011;14235;48.532;8.722;2024-02-28T11:21:53;10.73;;;9.25;;
26588;SDS011;14235;48.532;8.722;2024-02-28T11:24:22;10.75;;;9.65;;
26588;SDS011;14235;48.532;8.722;2024-02-28T11:26:49;13.07;;;9.75;;
26588;SDS011;14235;48.532;8.722;2024-02-28T11:29:16;11.60;;;9.98;;
26588;SDS011;14235;48.532;8.722;2024-02-28T11:31:42;10.95;;;9.70;;
26588;SDS011;14235;48.532;8.722;2024-02-28T11:34:08;13.45;;;9.43;;
26588;SDS011;14235;48.532;8.722;2024-02-28T11:36:34;12.10;;;10.20;;
26588;SDS011;14235;48.532;8.722;2024-02-28T11:39:01;13.20;;;9.82;;
26588;SDS011;14235;48.532;8.722;2024-02-28T11:41:28;12.05;;;10.13;;
26588;SDS011;14235;48.532;8.722;2024-02-28T11:43:54;11.57;;;9.73;;
26588;SDS011;14235;48.532;8.722;2024-02-28T11:46:20;10.93;;;9.57;;
26588;SDS011;14235;48.532;8.722;2024-02-28T11:48:46;10.85;;;9.75;;
26588;SDS011;14235;48.532;8.722;2024-02-28T11:51:12;13.10;;;10.48;;
26588;SDS011;14235;48.532;8.722;2024-02-28T11:53:38;14.23;;;9.73;;
26588;SDS011;14235;48.532;8.722;2024-02-28T11:56:04;12.30;;;9.52;;
26588;SDS011;14235;48.532;8.722;2024-02-28T11:58:30;12.20;;;9.95;;
26588;SDS011;14235;48.532;8.722;2024-02-28T12:00:55;11.18;;;9.98;;
26588;SDS011;14235;48.532;8.722;2024-02-28T12:03:22;10.70;;;9.60;;
26588;SDS011;14235;48.532;8.722;2024-02-28T12:05:49;11.30;;;10.10;;
26588;SDS011;14235;48.532;8.722;2024-02-28T12:08:16;11.43;;;9.55;;
26588;SDS011;14235;48.532;8.722;2024-02-28T12:10:42;11.15;;;9.68;;
26588;SDS011;14235;48.532;8.722;2024-02-28T12:13:08;11.30;;;9.73;;
26588;SDS011;14235;48.532;8.722;2024-02-28T12:15:36;11.05;;;8.50;;
26588;SDS011;14235;48.532;8.722;2024-02-28T12:18:08;9.98;;;8.90;;
26588;SDS011;14235;48.532;8.722;2024-02-28T12:20:37;12.20;;;8.98;;
26588;SDS011;14235;48.532;8.722;2024-02-28T12:23:06;10.48;;;8.65;;
26588;SDS011;14235;48.532;8.722;2024-02-28T12:25:33;10.88;;;9.13;;
26588;SDS011;14235;48.532;8.722;2024-02-28T12:28:00;9.52;;;8.38;;
26588;SDS011;14235;48.532;8.722;2024-02-28T12:30:26;13.00;;;9.30;;
26588;SDS011;14235;48.532;8.722;2024-02-28T12:32:52;12.55;;;9.05;;
26588;SDS011;14235;48.532;8.722;2024-02-28T12:35:18;10.35;;;8.57;;
26588;SDS011;14235;48.532;8.722;2024-02-28T12:37:45;10.20;;;9.18;;
26588;SDS011;14235;48.532;8.722;2024-02-28T12:40:13;12.93;;;9.82;;
26588;SDS011;14235;48.532;8.722;2024-02-28T12:42:40;10.25;;;9.13;;
26588;SDS011;14235;48.532;8.722;2024-02-28T12:45:06;11.75;;;10.05;;
26588;SDS011;14235;48.532;8.722;2024-02-28T12:47:32;11.73;;;9.55;;
26588;SDS011;14235;48.532;8.722;2024-02-28T12:49:58;10.35;;;8.90;;
26588;SDS011;14235;48.532;8.722;2024-02-28T12:52:24;10.95;;;9.30;;
26588;SDS011;14235;48.532;8.722;2024-02-28T12:54:51;10.43;;;8.68;;
26588;SDS011;14235;48.532;8.722;2024-02-28T12:57:17;10.32;;;9.23;;
26588;SDS011;14235;48.532;8.722;2024-02-28T12:59:43;11.35;;;9.48;;
26588;SDS011;14235;48.532;8.722;2024-02-28T13:02:09;11.77;;;9.23;;
26588;SDS011;14235;48.532;8.722;2024-02-28T13:04:35;11.80;;;9.40;;
26588;SDS011;14235;48.532;8.722;2024-02-28T13:07:01;11.05;;;9.63;;
26588;SDS011;14235;48.532;8.722;2024-02-28T13:09:27;11.20;;;9.57;;
26588;SDS011;14235;48.532;8.722;2024-02-28T13:11:53;10.27;;;9.20;;
26588;SDS011;14235;48.532;8.722;2024-02-28T13:14:19;10.63;;;9.25;;
26588;SDS011;14235;48.532;8.722;2024-02-28T13:16:45;9.63;;;8.63;;
26588;SDS011;14235;48.532;8.722;2024-02-28T13:19:11;9.95;;;8.73;;
26588;SDS011;14235;48.532;8.722;2024-02-28T13:21:38;9.80;;;8.80;;
26588;SDS011;14235;48.532;8.722;2024-02-28T13:24:04;12.70;;;9.60;;
26588;SDS011;14235;48.532;8.722;2024-02-28T13:26:31;10.52;;;9.52;;
26588;SDS011;14235;48.532;8.722;2024-02-28T13:28:56;10.52;;;9.35;;
26588;SDS011;14235;48.532;8.722;2024-02-28T13:31:22;12.75;;;9.82;;
26588;SDS011;14235;48.532;8.722;2024-02-28T13:33:48;11.85;;;9.50;;
26588;SDS011;14235;48.532;8.722;2024-02-28T13:36:14;12.23;;;9.73;;
26588;SDS011;14235;48.532;8.722;2024-02-28T13:38:40;14.32;;;11.68;;
26588;SDS011;14235;48.532;8.722;2024-02-28T13:41:06;13.82;;;10.23;;
26588;SDS011;14235;48.532;8.722;2024-02-28T13:43:32;16.13;;;11.88;;
26588;SDS011;14235;48.532;8.722;2024-02-28T13:45:58;10.05;;;9.05;;
26588;SDS011;14235;48.532;8.722;2024-02-28T13:48:28;10.95;;;8.82;;
26588;SDS011;14235;48.532;8.722;2024-02-28T13:50:54;12.90;;;9.18;;
26588;SDS011;14235;48.532;8.722;2024-02-28T13:53:20;11.38;;;9.48;;
26588;SDS011;14235;48.532;8.722;2024-02-28T13:55:46;10.75;;;9.57;;
26588;SDS011;14235;48.532;8.722;2024-02-28T13:58:12;10.13;;;9.00;;
26588;SDS011;14235;48.532;8.722;2024-02-28T14:00:38;9.85;;;8.52;;
26588;SDS011;14235;48.532;8.722;2024-02-28T14:03:04;9.77;;;8.80;;
26588;SDS011;14235;48.532;8.722;2024-02-28T14:05:34;13.90;;;9.65;;
26588;SDS011;14235;48.532;8.722;2024-02-28T14:08:00;10.35;;;9.32;;
26588;SDS011;14235;48.532;8.722;2024-02-28T14:10:28;11.48;;;9.63;;
26588;SDS011;14235;48.532;8.722;2024-02-28T14:12:54;10.73;;;9.68;;
26588;SDS011;14235;48.532;8.722;2024-02-28T14:15:20;9.90;;;8.88;;
26588;SDS011;14235;48.532;8.722;2024-02-28T14:17:50;11.75;;;9.52;;
26588;SDS011;14235;48.532;8.722;2024-02-28T14:20:16;9.98;;;9.00;;
26588;SDS011;14235;48.532;8.722;2024-02-28T14:22:42;10.18;;;9.07;;
26588;SDS011;14235;48.532;8.722;2024-02-28T14:25:12;13.23;;;10.98;;